Airfield :
LOGIN :

Register | Disclaimer

   EN    FR    IT 

 










Legend :    VFR   Marginal VFR   IFR   Intensive IFR   Very Intensive IFR
Visi :
Ceiling :
>= 8 km
>= 3000ft
5 to 8 km
1000 to 3000 ft
1500m to 5 km
500 to 1000 ft
800 to 1500m
200 to 500 ft
< 800m
< 200 ft
Symbols :   Thunderstorms  Fog  Heavy snow  Heavy precipitations  Wind > 20 kt
SIGMETs :     Misc.  Thunderstorms  Icing  Turbulence  Mountain Waves  Volcanic Ashes







- Airport Elevation : 74 ft
- IATA code : EIN


EHEH - Eindhoven

CURRENT METAR :
  • 231955Z AUTO 28005KT 240V330 9999 SCT039 BKN044 BKN065 10/09 Q1021 BLU 30006KT 9999 FEW035 BKN050 TEMPO 4000 RA SHRA FEW010 SCT020CB SCT035

EXPIRED METARs :
  • 231925Z AUTO 28005KT 240V310 9999 -DZ BKN048 OVC053 10/09 Q1021 BLU 30006KT 9999 -RA FEW010 SCT035 BKN040 TEMPO 4000 RA SHRA SCT010 SCT020CB BKN030
  • 231855Z AUTO 28005KT 240V320 9999 -DZ FEW035 BKN043 BKN075 09/08 Q1020 BLU 30006KT 9999 -RA FEW010 SCT035 BKN040 TEMPO 4000 RA SHRA SCT010 SCT020CB BKN030
  • 231825Z AUTO 28004KT 240V350 9999 -RA SCT044 BKN049 BKN054 09/08 Q1019 BLU 30006KT 9999 -RA FEW010 SCT035 BKN040 TEMPO 4000 RA SHRA SCT010 SCT020CB BKN030
  • 231755Z AUTO 29004KT 240V340 9999 DZ FEW028 SCT032 BKN037 10/08 Q1018 BLU 30006KT 9999 -RA FEW010 SCT035 BKN040 TEMPO 4000 RA SHRA SCT010 SCT020CB BKN030
  • 231725Z AUTO 30006KT 250V360 9999 DZ FEW030 BKN035 BKN040 10/08 Q1017 BLU 30006KT 9999 -RA FEW010 SCT035 BKN040 TEMPO 4000 RA SHRA SCT010 SCT020CB BKN030

TAF TAF EHEH
Valid from the 23 at 18:00 until the 25 at 00:00 UTC


231704Z 2318/2424 30006KT 9999 BKN040 BKN045
PROB40
TEMPO 2318/2322 4000 SHRA SCT010 SCT022CB BKN030
PROB30
TEMPO 2407/2413 SCT025CB BKN030
BECMG 2410/2412 31012G22KT
BECMG 2416/2419 24004KT
No reported NOTAMs for that airfield.



MET'MAP, your aeronautical weather chart ! - Copyright ORBIFLY December 2007 - Disclaimer

ORBIFLY MET'MAP TEAM :

Programming & Development : Alexandra Zaïnal
Concept & Development : Baudouin d'Aumeries
Co-Development & Prog : Marc-Olivier Méhu
Technical & hardware support : Manuel Goepfert

Contact : metmap@orbifly.com




SOURCES & CREDITS :

   NOAA